sensor_id;sensor_type;location;lat;lon;timestamp;P1;durP1;ratioP1;P2;durP2;ratioP2
65182;SDS011;51771;51.068;-1.780;2023-04-24T00:00:00;17.25;;;7.55;;
65182;SDS011;51771;51.068;-1.780;2023-04-24T00:02:26;17.20;;;8.15;;
65182;SDS011;51771;51.068;-1.780;2023-04-24T00:04:51;18.20;;;7.82;;
65182;SDS011;51771;51.068;-1.780;2023-04-24T00:07:17;16.67;;;8.02;;
65182;SDS011;51771;51.068;-1.780;2023-04-24T00:09:42;16.30;;;7.28;;
65182;SDS011;51771;51.068;-1.780;2023-04-24T00:12:08;14.38;;;7.22;;
65182;SDS011;51771;51.068;-1.780;2023-04-24T00:14:34;16.63;;;8.38;;
65182;SDS011;51771;51.068;-1.780;2023-04-24T00:17:00;16.25;;;8.13;;
65182;SDS011;51771;51.068;-1.780;2023-04-24T00:19:27;14.13;;;8.02;;
65182;SDS011;51771;51.068;-1.780;2023-04-24T00:21:53;14.07;;;7.72;;
65182;SDS011;51771;51.068;-1.780;2023-04-24T00:24:19;16.33;;;8.35;;
65182;SDS011;51771;51.068;-1.780;2023-04-24T00:26:45;16.67;;;7.57;;
65182;SDS011;51771;51.068;-1.780;2023-04-24T00:29:10;17.90;;;8.55;;
65182;SDS011;51771;51.068;-1.780;2023-04-24T00:31:36;16.58;;;7.80;;
65182;SDS011;51771;51.068;-1.780;2023-04-24T00:34:01;18.52;;;7.40;;
65182;SDS011;51771;51.068;-1.780;2023-04-24T00:36:28;16.02;;;7.78;;
65182;SDS011;51771;51.068;-1.780;2023-04-24T00:38:54;15.55;;;7.90;;
65182;SDS011;51771;51.068;-1.780;2023-04-24T00:41:20;16.00;;;7.65;;
65182;SDS011;51771;51.068;-1.780;2023-04-24T00:43:46;15.85;;;6.93;;
65182;SDS011;51771;51.068;-1.780;2023-04-24T00:46:12;16.38;;;7.50;;
65182;SDS011;51771;51.068;-1.780;2023-04-24T00:48:38;13.13;;;6.45;;
65182;SDS011;51771;51.068;-1.780;2023-04-24T00:51:04;15.18;;;7.18;;
65182;SDS011;51771;51.068;-1.780;2023-04-24T00:53:30;15.82;;;7.10;;
65182;SDS011;51771;51.068;-1.780;2023-04-24T00:55:56;15.15;;;7.43;;
65182;SDS011;51771;51.068;-1.780;2023-04-24T00:58:22;16.85;;;7.32;;
65182;SDS011;51771;51.068;-1.780;2023-04-24T01:00:48;15.07;;;7.03;;
65182;SDS011;51771;51.068;-1.780;2023-04-24T01:03:17;15.05;;;7.55;;
65182;SDS011;51771;51.068;-1.780;2023-04-24T01:05:45;16.48;;;7.28;;
65182;SDS011;51771;51.068;-1.780;2023-04-24T01:08:10;18.20;;;7.53;;
65182;SDS011;51771;51.068;-1.780;2023-04-24T01:10:36;16.88;;;7.82;;
65182;SDS011;51771;51.068;-1.780;2023-04-24T01:13:03;15.98;;;8.15;;
65182;SDS011;51771;51.068;-1.780;2023-04-24T01:15:29;16.67;;;8.95;;
65182;SDS011;51771;51.068;-1.780;2023-04-24T01:17:54;18.42;;;8.38;;
65182;SDS011;51771;51.068;-1.780;2023-04-24T01:20:21;17.85;;;7.78;;
65182;SDS011;51771;51.068;-1.780;2023-04-24T01:22:46;15.18;;;7.47;;
65182;SDS011;51771;51.068;-1.780;2023-04-24T01:25:12;15.35;;;7.70;;
65182;SDS011;51771;51.068;-1.780;2023-04-24T01:27:37;14.75;;;7.03;;
65182;SDS011;51771;51.068;-1.780;2023-04-24T01:30:03;14.98;;;7.28;;
65182;SDS011;51771;51.068;-1.780;2023-04-24T01:32:29;13.80;;;6.68;;
65182;SDS011;51771;51.068;-1.780;2023-04-24T01:34:55;13.80;;;7.60;;
65182;SDS011;51771;51.068;-1.780;2023-04-24T01:37:20;14.00;;;6.90;;
65182;SDS011;51771;51.068;-1.780;2023-04-24T01:39:46;15.63;;;7.07;;
65182;SDS011;51771;51.068;-1.780;2023-04-24T01:42:12;17.35;;;7.38;;
65182;SDS011;51771;51.068;-1.780;2023-04-24T01:44:37;15.23;;;6.55;;
65182;SDS011;51771;51.068;-1.780;2023-04-24T01:47:03;16.95;;;7.65;;
65182;SDS011;51771;51.068;-1.780;2023-04-24T01:49:29;12.25;;;6.30;;
65182;SDS011;51771;51.068;-1.780;2023-04-24T01:51:54;17.85;;;6.70;;
65182;SDS011;51771;51.068;-1.780;2023-04-24T01:54:20;13.98;;;6.68;;
65182;SDS011;51771;51.068;-1.780;2023-04-24T01:56:45;13.70;;;5.97;;
65182;SDS011;51771;51.068;-1.780;2023-04-24T01:59:12;12.48;;;5.88;;
65182;SDS011;51771;51.068;-1.780;2023-04-24T02:01:38;15.32;;;6.57;;
65182;SDS011;51771;51.068;-1.780;2023-04-24T02:04:04;14.27;;;7.22;;
65182;SDS011;51771;51.068;-1.780;2023-04-24T02:06:31;13.52;;;7.00;;
65182;SDS011;51771;51.068;-1.780;2023-04-24T02:08:57;15.30;;;6.90;;
65182;SDS011;51771;51.068;-1.780;2023-04-24T02:11:26;15.07;;;7.90;;
65182;SDS011;51771;51.068;-1.780;2023-04-24T02:13:51;13.60;;;7.13;;
65182;SDS011;51771;51.068;-1.780;2023-04-24T02:16:17;15.52;;;7.32;;
65182;SDS011;51771;51.068;-1.780;2023-04-24T02:18:43;16.10;;;7.50;;
65182;SDS011;51771;51.068;-1.780;2023-04-24T02:21:09;13.48;;;7.20;;
65182;SDS011;51771;51.068;-1.780;2023-04-24T02:23:35;18.65;;;8.00;;
65182;SDS011;51771;51.068;-1.780;2023-04-24T02:26:01;13.65;;;7.18;;
65182;SDS011;51771;51.068;-1.780;2023-04-24T02:28:26;14.23;;;7.35;;
65182;SDS011;51771;51.068;-1.780;2023-04-24T02:30:51;15.98;;;7.75;;
65182;SDS011;51771;51.068;-1.780;2023-04-24T02:33:17;15.82;;;7.32;;
65182;SDS011;51771;51.068;-1.780;2023-04-24T02:35:42;16.98;;;7.47;;
65182;SDS011;51771;51.068;-1.780;2023-04-24T02:38:11;15.40;;;7.03;;
65182;SDS011;51771;51.068;-1.780;2023-04-24T02:40:36;14.40;;;6.82;;
65182;SDS011;51771;51.068;-1.780;2023-04-24T02:43:02;15.52;;;7.05;;
65182;SDS011;51771;51.068;-1.780;2023-04-24T02:45:27;13.07;;;6.25;;
65182;SDS011;51771;51.068;-1.780;2023-04-24T02:47:52;14.45;;;7.28;;
65182;SDS011;51771;51.068;-1.780;2023-04-24T02:50:18;14.25;;;7.15;;
65182;SDS011;51771;51.068;-1.780;2023-04-24T02:52:43;16.30;;;6.43;;
65182;SDS011;51771;51.068;-1.780;2023-04-24T02:55:08;14.43;;;6.78;;
65182;SDS011;51771;51.068;-1.780;2023-04-24T02:57:34;16.00;;;7.07;;
65182;SDS011;51771;51.068;-1.780;2023-04-24T02:59:59;15.00;;;6.45;;
65182;SDS011;51771;51.068;-1.780;2023-04-24T03:02:25;15.25;;;7.43;;
65182;SDS011;51771;51.068;-1.780;2023-04-24T03:04:50;13.57;;;6.85;;
65182;SDS011;51771;51.068;-1.780;2023-04-24T03:07:15;12.90;;;6.70;;
65182;SDS011;51771;51.068;-1.780;2023-04-24T03:09:41;15.13;;;7.38;;
65182;SDS011;51771;51.068;-1.780;2023-04-24T03:12:06;14.15;;;6.45;;
65182;SDS011;51771;51.068;-1.780;2023-04-24T03:14:32;17.08;;;7.68;;
65182;SDS011;51771;51.068;-1.780;2023-04-24T03:16:57;13.75;;;6.18;;
65182;SDS011;51771;51.068;-1.780;2023-04-24T03:19:23;15.35;;;6.68;;
65182;SDS011;51771;51.068;-1.780;2023-04-24T03:21:49;13.52;;;6.97;;
65182;SDS011;51771;51.068;-1.780;2023-04-24T03:24:14;17.17;;;7.20;;
65182;SDS011;51771;51.068;-1.780;2023-04-24T03:26:40;13.35;;;6.43;;
65182;SDS011;51771;51.068;-1.780;2023-04-24T03:29:05;14.82;;;6.88;;
65182;SDS011;51771;51.068;-1.780;2023-04-24T03:31:31;11.63;;;5.38;;
65182;SDS011;51771;51.068;-1.780;2023-04-24T03:33:56;15.93;;;6.75;;
65182;SDS011;51771;51.068;-1.780;2023-04-24T03:36:21;18.02;;;7.30;;
65182;SDS011;51771;51.068;-1.780;2023-04-24T03:38:47;16.83;;;6.88;;
65182;SDS011;51771;51.068;-1.780;2023-04-24T03:41:12;13.85;;;7.13;;
65182;SDS011;51771;51.068;-1.780;2023-04-24T03:43:38;12.55;;;6.95;;
65182;SDS011;51771;51.068;-1.780;2023-04-24T03:46:04;14.98;;;6.80;;
65182;SDS011;51771;51.068;-1.780;2023-04-24T03:48:29;14.52;;;6.97;;
65182;SDS011;51771;51.068;-1.780;2023-04-24T03:50:55;14.55;;;6.47;;
65182;SDS011;51771;51.068;-1.780;2023-04-24T03:53:20;14.98;;;6.18;;
65182;SDS011;51771;51.068;-1.780;2023-04-24T03:55:46;14.10;;;6.43;;
65182;SDS011;51771;51.068;-1.780;2023-04-24T03:58:11;15.25;;;6.22;;
65182;SDS011;51771;51.068;-1.780;2023-04-24T04:00:38;15.18;;;6.88;;
65182;SDS011;51771;51.068;-1.780;2023-04-24T04:03:05;17.38;;;6.93;;
65182;SDS011;51771;51.068;-1.780;2023-04-24T04:05:30;11.20;;;6.07;;
65182;SDS011;51771;51.068;-1.780;2023-04-24T04:07:56;15.27;;;5.55;;
65182;SDS011;51771;51.068;-1.780;2023-04-24T04:10:21;11.52;;;5.65;;
65182;SDS011;51771;51.068;-1.780;2023-04-24T04:12:47;13.52;;;6.20;;
65182;SDS011;51771;51.068;-1.780;2023-04-24T04:15:12;12.02;;;6.72;;
65182;SDS011;51771;51.068;-1.780;2023-04-24T04:17:37;12.35;;;5.57;;
65182;SDS011;51771;51.068;-1.780;2023-04-24T04:20:03;12.50;;;5.75;;
65182;SDS011;51771;51.068;-1.780;2023-04-24T04:22:34;13.00;;;6.25;;
65182;SDS011;51771;51.068;-1.780;2023-04-24T04:24:59;15.93;;;5.60;;
65182;SDS011;51771;51.068;-1.780;2023-04-24T04:27:24;12.57;;;6.53;;
65182;SDS011;51771;51.068;-1.780;2023-04-24T04:29:50;11.68;;;5.68;;
65182;SDS011;51771;51.068;-1.780;2023-04-24T04:32:16;15.98;;;6.22;;
65182;SDS011;51771;51.068;-1.780;2023-04-24T04:34:41;11.38;;;5.40;;
65182;SDS011;51771;51.068;-1.780;2023-04-24T04:37:07;13.63;;;6.28;;
65182;SDS011;51771;51.068;-1.780;2023-04-24T04:39:33;16.92;;;6.55;;
65182;SDS011;51771;51.068;-1.780;2023-04-24T04:41:59;13.75;;;5.70;;
65182;SDS011;51771;51.068;-1.780;2023-04-24T04:44:25;14.02;;;6.00;;
65182;SDS011;51771;51.068;-1.780;2023-04-24T04:46:52;16.27;;;6.28;;
65182;SDS011;51771;51.068;-1.780;2023-04-24T04:49:21;11.98;;;5.72;;
65182;SDS011;51771;51.068;-1.780;2023-04-24T04:51:48;15.00;;;6.50;;
65182;SDS011;51771;51.068;-1.780;2023-04-24T04:54:15;13.20;;;6.32;;
65182;SDS011;51771;51.068;-1.780;2023-04-24T04:56:41;15.30;;;6.60;;
65182;SDS011;51771;51.068;-1.780;2023-04-24T04:59:07;11.30;;;6.07;;
65182;SDS011;51771;51.068;-1.780;2023-04-24T05:01:32;12.10;;;5.82;;
65182;SDS011;51771;51.068;-1.780;2023-04-24T05:03:58;12.25;;;5.60;;
65182;SDS011;51771;51.068;-1.780;2023-04-24T05:06:23;13.50;;;6.22;;
65182;SDS011;51771;51.068;-1.780;2023-04-24T05:08:49;11.77;;;5.30;;
65182;SDS011;51771;51.068;-1.780;2023-04-24T05:11:14;13.75;;;5.88;;
65182;SDS011;51771;51.068;-1.780;2023-04-24T05:13:40;11.55;;;5.53;;
65182;SDS011;51771;51.068;-1.780;2023-04-24T05:16:05;13.30;;;6.53;;
65182;SDS011;51771;51.068;-1.780;2023-04-24T05:18:31;14.45;;;5.90;;
65182;SDS011;51771;51.068;-1.780;2023-04-24T05:20:56;12.32;;;6.57;;
65182;SDS011;51771;51.068;-1.780;2023-04-24T05:23:22;15.50;;;6.82;;
65182;SDS011;51771;51.068;-1.780;2023-04-24T05:25:47;12.60;;;5.85;;
65182;SDS011;51771;51.068;-1.780;2023-04-24T05:28:13;13.93;;;6.13;;
65182;SDS011;51771;51.068;-1.780;2023-04-24T05:30:38;11.35;;;5.70;;
65182;SDS011;51771;51.068;-1.780;2023-04-24T05:33:03;12.57;;;5.72;;
65182;SDS011;51771;51.068;-1.780;2023-04-24T05:35:29;11.35;;;5.55;;
65182;SDS011;51771;51.068;-1.780;2023-04-24T05:37:54;10.80;;;5.28;;
65182;SDS011;51771;51.068;-1.780;2023-04-24T05:40:20;11.40;;;5.07;;
65182;SDS011;51771;51.068;-1.780;2023-04-24T05:42:46;10.98;;;5.28;;
65182;SDS011;51771;51.068;-1.780;2023-04-24T05:45:11;12.50;;;5.63;;
65182;SDS011;51771;51.068;-1.780;2023-04-24T05:47:41;9.65;;;5.53;;
65182;SDS011;51771;51.068;-1.780;2023-04-24T05:50:08;8.95;;;4.45;;
65182;SDS011;51771;51.068;-1.780;2023-04-24T05:52:34;11.82;;;4.65;;
65182;SDS011;51771;51.068;-1.780;2023-04-24T05:55:00;9.65;;;5.07;;
65182;SDS011;51771;51.068;-1.780;2023-04-24T05:57:25;10.02;;;5.07;;
65182;SDS011;51771;51.068;-1.780;2023-04-24T05:59:51;9.15;;;5.00;;
65182;SDS011;51771;51.068;-1.780;2023-04-24T06:02:16;10.23;;;5.60;;
65182;SDS011;51771;51.068;-1.780;2023-04-24T06:04:42;9.48;;;4.50;;
65182;SDS011;51771;51.068;-1.780;2023-04-24T06:07:09;10.32;;;5.68;;
65182;SDS011;51771;51.068;-1.780;2023-04-24T06:09:35;10.25;;;5.57;;
65182;SDS011;51771;51.068;-1.780;2023-04-24T06:12:01;9.73;;;5.15;;
65182;SDS011;51771;51.068;-1.780;2023-04-24T06:14:27;9.13;;;5.13;;
65182;SDS011;51771;51.068;-1.780;2023-04-24T06:16:53;9.40;;;5.25;;
65182;SDS011;51771;51.068;-1.780;2023-04-24T06:19:18;9.48;;;4.60;;
65182;SDS011;51771;51.068;-1.780;2023-04-24T06:21:44;8.07;;;4.20;;
65182;SDS011;51771;51.068;-1.780;2023-04-24T06:24:09;7.32;;;4.15;;
65182;SDS011;51771;51.068;-1.780;2023-04-24T06:26:35;6.60;;;3.78;;
65182;SDS011;51771;51.068;-1.780;2023-04-24T06:29:01;7.78;;;4.50;;
65182;SDS011;51771;51.068;-1.780;2023-04-24T06:31:26;7.70;;;4.40;;
65182;SDS011;51771;51.068;-1.780;2023-04-24T06:33:52;11.60;;;4.55;;
65182;SDS011;51771;51.068;-1.780;2023-04-24T06:36:17;9.73;;;5.15;;
65182;SDS011;51771;51.068;-1.780;2023-04-24T06:38:43;8.82;;;4.20;;
65182;SDS011;51771;51.068;-1.780;2023-04-24T06:41:09;7.38;;;4.15;;
65182;SDS011;51771;51.068;-1.780;2023-04-24T06:43:35;8.77;;;5.05;;
65182;SDS011;51771;51.068;-1.780;2023-04-24T06:46:00;8.55;;;4.85;;
65182;SDS011;51771;51.068;-1.780;2023-04-24T06:48:27;10.93;;;5.43;;
65182;SDS011;51771;51.068;-1.780;2023-04-24T06:50:52;8.98;;;5.28;;
65182;SDS011;51771;51.068;-1.780;2023-04-24T06:53:18;10.50;;;5.28;;
65182;SDS011;51771;51.068;-1.780;2023-04-24T06:55:43;11.95;;;5.60;;
65182;SDS011;51771;51.068;-1.780;2023-04-24T06:58:11;9.57;;;5.32;;
65182;SDS011;51771;51.068;-1.780;2023-04-24T07:00:36;7.80;;;4.40;;
65182;SDS011;51771;51.068;-1.780;2023-04-24T07:03:03;9.38;;;4.88;;
65182;SDS011;51771;51.068;-1.780;2023-04-24T07:05:30;11.05;;;5.18;;
65182;SDS011;51771;51.068;-1.780;2023-04-24T07:07:55;8.57;;;5.00;;
65182;SDS011;51771;51.068;-1.780;2023-04-24T07:10:23;9.85;;;4.70;;
65182;SDS011;51771;51.068;-1.780;2023-04-24T07:12:49;9.73;;;5.28;;
65182;SDS011;51771;51.068;-1.780;2023-04-24T07:15:14;9.35;;;4.65;;
65182;SDS011;51771;51.068;-1.780;2023-04-24T07:17:41;10.00;;;5.40;;
65182;SDS011;51771;51.068;-1.780;2023-04-24T07:20:09;11.90;;;5.38;;
65182;SDS011;51771;51.068;-1.780;2023-04-24T07:22:35;9.27;;;4.57;;
65182;SDS011;51771;51.068;-1.780;2023-04-24T07:25:02;9.23;;;4.35;;
65182;SDS011;51771;51.068;-1.780;2023-04-24T07:27:28;10.70;;;5.25;;
65182;SDS011;51771;51.068;-1.780;2023-04-24T07:29:53;9.63;;;5.07;;
65182;SDS011;51771;51.068;-1.780;2023-04-24T07:32:19;9.55;;;5.15;;
65182;SDS011;51771;51.068;-1.780;2023-04-24T07:34:45;9.88;;;5.43;;
65182;SDS011;51771;51.068;-1.780;2023-04-24T07:37:11;7.70;;;4.75;;
65182;SDS011;51771;51.068;-1.780;2023-04-24T07:39:37;9.07;;;5.45;;
65182;SDS011;51771;51.068;-1.780;2023-04-24T07:42:02;10.00;;;4.88;;
65182;SDS011;51771;51.068;-1.780;2023-04-24T07:44:28;9.38;;;5.45;;
65182;SDS011;51771;51.068;-1.780;2023-04-24T07:46:54;10.15;;;4.78;;
65182;SDS011;51771;51.068;-1.780;2023-04-24T07:49:19;10.02;;;5.40;;
65182;SDS011;51771;51.068;-1.780;2023-04-24T07:51:45;11.93;;;5.68;;
65182;SDS011;51771;51.068;-1.780;2023-04-24T07:54:10;13.80;;;5.70;;
65182;SDS011;51771;51.068;-1.780;2023-04-24T07:56:35;10.75;;;5.20;;
65182;SDS011;51771;51.068;-1.780;2023-04-24T07:59:04;16.30;;;5.30;;
65182;SDS011;51771;51.068;-1.780;2023-04-24T08:01:29;8.73;;;5.10;;
65182;SDS011;51771;51.068;-1.780;2023-04-24T08:03:55;11.98;;;5.05;;
65182;SDS011;51771;51.068;-1.780;2023-04-24T08:06:21;9.70;;;4.65;;
65182;SDS011;51771;51.068;-1.780;2023-04-24T08:08:46;9.52;;;5.60;;
65182;SDS011;51771;51.068;-1.780;2023-04-24T08:11:13;9.80;;;5.00;;
65182;SDS011;51771;51.068;-1.780;2023-04-24T08:13:38;10.45;;;4.93;;
65182;SDS011;51771;51.068;-1.780;2023-04-24T08:16:03;9.23;;;5.03;;
65182;SDS011;51771;51.068;-1.780;2023-04-24T08:18:29;17.05;;;5.93;;
65182;SDS011;51771;51.068;-1.780;2023-04-24T08:20:54;9.57;;;5.22;;
65182;SDS011;51771;51.068;-1.780;2023-04-24T08:23:21;9.68;;;4.82;;
65182;SDS011;51771;51.068;-1.780;2023-04-24T08:25:47;10.68;;;4.50;;
65182;SDS011;51771;51.068;-1.780;2023-04-24T08:28:12;10.15;;;5.00;;
65182;SDS011;51771;51.068;-1.780;2023-04-24T08:30:37;10.85;;;5.63;;
65182;SDS011;51771;51.068;-1.780;2023-04-24T08:33:03;14.48;;;5.75;;
65182;SDS011;51771;51.068;-1.780;2023-04-24T08:35:28;11.02;;;6.57;;
65182;SDS011;51771;51.068;-1.780;2023-04-24T08:37:54;10.50;;;5.68;;
65182;SDS011;51771;51.068;-1.780;2023-04-24T08:40:21;14.55;;;6.18;;
65182;SDS011;51771;51.068;-1.780;2023-04-24T08:42:51;13.43;;;5.72;;
65182;SDS011;51771;51.068;-1.780;2023-04-24T08:47:44;10.63;;;5.43;;
65182;SDS011;51771;51.068;-1.780;2023-04-24T08:50:10;10.13;;;5.97;;
65182;SDS011;51771;51.068;-1.780;2023-04-24T08:52:38;10.95;;;5.40;;
65182;SDS011;51771;51.068;-1.780;2023-04-24T08:55:03;10.43;;;6.18;;
65182;SDS011;51771;51.068;-1.780;2023-04-24T08:57:30;13.18;;;6.10;;
65182;SDS011;51771;51.068;-1.780;2023-04-24T08:59:56;13.82;;;6.53;;
65182;SDS011;51771;51.068;-1.780;2023-04-24T09:02:23;11.52;;;6.25;;
65182;SDS011;51771;51.068;-1.780;2023-04-24T09:04:48;15.07;;;5.88;;
65182;SDS011;51771;51.068;-1.780;2023-04-24T09:07:16;11.95;;;5.38;;
65182;SDS011;51771;51.068;-1.780;2023-04-24T09:09:43;11.38;;;6.43;;
65182;SDS011;51771;51.068;-1.780;2023-04-24T09:12:09;12.80;;;6.55;;
65182;SDS011;51771;51.068;-1.780;2023-04-24T09:14:35;9.55;;;5.75;;
65182;SDS011;51771;51.068;-1.780;2023-04-24T09:17:04;12.10;;;7.13;;
65182;SDS011;51771;51.068;-1.780;2023-04-24T09:19:31;10.68;;;5.63;;
65182;SDS011;51771;51.068;-1.780;2023-04-24T09:21:56;9.10;;;4.63;;
65182;SDS011;51771;51.068;-1.780;2023-04-24T09:24:22;10.80;;;4.57;;
65182;SDS011;51771;51.068;-1.780;2023-04-24T09:26:48;7.97;;;4.45;;
65182;SDS011;51771;51.068;-1.780;2023-04-24T09:29:22;9.20;;;4.65;;
65182;SDS011;51771;51.068;-1.780;2023-04-24T09:31:47;9.68;;;4.85;;
65182;SDS011;51771;51.068;-1.780;2023-04-24T09:34:12;11.68;;;5.50;;
65182;SDS011;51771;51.068;-1.780;2023-04-24T09:36:39;11.02;;;5.78;;
65182;SDS011;51771;51.068;-1.780;2023-04-24T09:39:16;8.98;;;5.78;;
65182;SDS011;51771;51.068;-1.780;2023-04-24T09:41:52;10.73;;;5.50;;
65182;SDS011;51771;51.068;-1.780;2023-04-24T09:44:25;9.18;;;4.90;;
65182;SDS011;51771;51.068;-1.780;2023-04-24T09:46:55;8.07;;;4.88;;
65182;SDS011;51771;51.068;-1.780;2023-04-24T09:49:28;7.78;;;4.32;;
65182;SDS011;51771;51.068;-1.780;2023-04-24T09:54:30;7.88;;;4.03;;
65182;SDS011;51771;51.068;-1.780;2023-04-24T09:56:56;8.85;;;4.13;;
65182;SDS011;51771;51.068;-1.780;2023-04-24T09:59:21;8.88;;;4.45;;
65182;SDS011;51771;51.068;-1.780;2023-04-24T10:01:47;9.00;;;4.47;;
65182;SDS011;51771;51.068;-1.780;2023-04-24T10:04:26;8.73;;;4.25;;
65182;SDS011;51771;51.068;-1.780;2023-04-24T10:06:55;8.45;;;4.20;;
65182;SDS011;51771;51.068;-1.780;2023-04-24T10:09:25;9.73;;;4.97;;
65182;SDS011;51771;51.068;-1.780;2023-04-24T10:11:52;8.32;;;4.93;;
65182;SDS011;51771;51.068;-1.780;2023-04-24T10:14:20;11.63;;;5.07;;
65182;SDS011;51771;51.068;-1.780;2023-04-24T10:16:47;8.60;;;4.72;;
65182;SDS011;51771;51.068;-1.780;2023-04-24T10:19:14;8.73;;;4.45;;
65182;SDS011;51771;51.068;-1.780;2023-04-24T10:21:40;8.70;;;4.28;;
65182;SDS011;51771;51.068;-1.780;2023-04-24T10:24:10;8.55;;;3.97;;
65182;SDS011;51771;51.068;-1.780;2023-04-24T10:26:43;11.82;;;4.50;;
65182;SDS011;51771;51.068;-1.780;2023-04-24T10:29:10;7.72;;;4.50;;
65182;SDS011;51771;51.068;-1.780;2023-04-24T10:31:38;22.40;;;5.15;;
65182;SDS011;51771;51.068;-1.780;2023-04-24T10:34:05;9.07;;;4.88;;
65182;SDS011;51771;51.068;-1.780;2023-04-24T10:36:35;9.65;;;4.70;;
65182;SDS011;51771;51.068;-1.780;2023-04-24T10:39:06;8.93;;;5.30;;
65182;SDS011;51771;51.068;-1.780;2023-04-24T10:41:36;9.57;;;5.00;;
65182;SDS011;51771;51.068;-1.780;2023-04-24T10:44:12;8.30;;;4.60;;
65182;SDS011;51771;51.068;-1.780;2023-04-24T10:46:43;8.55;;;4.80;;
65182;SDS011;51771;51.068;-1.780;2023-04-24T10:49:09;11.65;;;5.03;;
65182;SDS011;51771;51.068;-1.780;2023-04-24T10:51:50;11.88;;;4.95;;
65182;SDS011;51771;51.068;-1.780;2023-04-24T10:54:28;8.25;;;4.93;;
65182;SDS011;51771;51.068;-1.780;2023-04-24T10:59:43;12.65;;;5.82;;
65182;SDS011;51771;51.068;-1.780;2023-04-24T11:02:09;9.02;;;5.50;;
65182;SDS011;51771;51.068;-1.780;2023-04-24T11:04:35;9.35;;;5.15;;
65182;SDS011;51771;51.068;-1.780;2023-04-24T11:07:02;10.48;;;4.45;;
65182;SDS011;51771;51.068;-1.780;2023-04-24T11:09:27;9.40;;;5.15;;
65182;SDS011;51771;51.068;-1.780;2023-04-24T11:12:06;9.48;;;5.43;;
65182;SDS011;51771;51.068;-1.780;2023-04-24T11:17:42;8.20;;;4.53;;
65182;SDS011;51771;51.068;-1.780;2023-04-24T11:20:08;10.52;;;4.78;;
65182;SDS011;51771;51.068;-1.780;2023-04-24T11:22:36;8.73;;;3.97;;
65182;SDS011;51771;51.068;-1.780;2023-04-24T11:25:04;9.73;;;4.32;;
65182;SDS011;51771;51.068;-1.780;2023-04-24T11:27:34;8.10;;;4.43;;
65182;SDS011;51771;51.068;-1.780;2023-04-24T11:30:04;9.35;;;4.75;;
65182;SDS011;51771;51.068;-1.780;2023-04-24T11:35:18;13.18;;;5.68;;
65182;SDS011;51771;51.068;-1.780;2023-04-24T11:37:49;14.77;;;5.88;;
65182;SDS011;51771;51.068;-1.780;2023-04-24T11:40:17;8.57;;;4.25;;
65182;SDS011;51771;51.068;-1.780;2023-04-24T11:42:47;11.48;;;4.30;;
65182;SDS011;51771;51.068;-1.780;2023-04-24T11:48:03;10.15;;;5.00;;
65182;SDS011;51771;51.068;-1.780;2023-04-24T11:50:29;10.90;;;5.28;;
65182;SDS011;51771;51.068;-1.780;2023-04-24T11:52:55;8.07;;;3.42;;
65182;SDS011;51771;51.068;-1.780;2023-04-24T11:57:47;6.43;;;2.67;;
65182;SDS011;51771;51.068;-1.780;2023-04-24T12:00:19;7.97;;;2.53;;
65182;SDS011;51771;51.068;-1.780;2023-04-24T12:02:45;4.43;;;1.95;;
65182;SDS011;51771;51.068;-1.780;2023-04-24T12:05:20;8.23;;;2.30;;
65182;SDS011;51771;51.068;-1.780;2023-04-24T12:07:45;4.47;;;1.60;;
65182;SDS011;51771;51.068;-1.780;2023-04-24T12:10:11;3.90;;;1.60;;
65182;SDS011;51771;51.068;-1.780;2023-04-24T12:12:36;5.28;;;1.88;;
65182;SDS011;51771;51.068;-1.780;2023-04-24T12:15:06;5.68;;;1.90;;
65182;SDS011;51771;51.068;-1.780;2023-04-24T12:17:32;6.50;;;1.48;;
65182;SDS011;51771;51.068;-1.780;2023-04-24T12:20:07;4.70;;;2.00;;
65182;SDS011;51771;51.068;-1.780;2023-04-24T12:25:19;5.25;;;1.30;;
65182;SDS011;51771;51.068;-1.780;2023-04-24T12:27:45;4.68;;;1.63;;
65182;SDS011;51771;51.068;-1.780;2023-04-24T12:30:12;3.80;;;1.42;;
65182;SDS011;51771;51.068;-1.780;2023-04-24T12:32:41;4.57;;;1.73;;
65182;SDS011;51771;51.068;-1.780;2023-04-24T12:35:07;4.35;;;1.60;;
65182;SDS011;51771;51.068;-1.780;2023-04-24T12:37:33;4.55;;;1.50;;
65182;SDS011;51771;51.068;-1.780;2023-04-24T12:40:02;5.13;;;1.63;;
65182;SDS011;51771;51.068;-1.780;2023-04-24T12:42:30;5.32;;;1.63;;
65182;SDS011;51771;51.068;-1.780;2023-04-24T12:44:56;4.40;;;1.30;;
65182;SDS011;51771;51.068;-1.780;2023-04-24T12:47:23;8.13;;;2.45;;
65182;SDS011;51771;51.068;-1.780;2023-04-24T12:49:48;9.52;;;3.25;;
65182;SDS011;51771;51.068;-1.780;2023-04-24T12:52:15;7.55;;;2.72;;
65182;SDS011;51771;51.068;-1.780;2023-04-24T12:54:42;8.45;;;2.78;;
65182;SDS011;51771;51.068;-1.780;2023-04-24T12:57:07;6.35;;;3.00;;
65182;SDS011;51771;51.068;-1.780;2023-04-24T12:59:32;5.80;;;2.70;;
65182;SDS011;51771;51.068;-1.780;2023-04-24T13:01:59;5.95;;;2.60;;
65182;SDS011;51771;51.068;-1.780;2023-04-24T13:04:24;4.55;;;1.95;;
65182;SDS011;51771;51.068;-1.780;2023-04-24T13:06:50;6.70;;;2.13;;
65182;SDS011;51771;51.068;-1.780;2023-04-24T13:09:15;6.60;;;2.78;;
65182;SDS011;51771;51.068;-1.780;2023-04-24T13:11:40;6.28;;;2.40;;
65182;SDS011;51771;51.068;-1.780;2023-04-24T13:14:06;6.47;;;2.53;;
65182;SDS011;51771;51.068;-1.780;2023-04-24T13:16:31;6.70;;;2.57;;
65182;SDS011;51771;51.068;-1.780;2023-04-24T13:18:56;6.43;;;2.90;;
65182;SDS011;51771;51.068;-1.780;2023-04-24T13:21:21;6.15;;;2.60;;
65182;SDS011;51771;51.068;-1.780;2023-04-24T13:23:46;5.40;;;1.90;;
65182;SDS011;51771;51.068;-1.780;2023-04-24T13:26:12;6.47;;;2.40;;
65182;SDS011;51771;51.068;-1.780;2023-04-24T13:28:37;6.77;;;2.77;;
65182;SDS011;51771;51.068;-1.780;2023-04-24T13:31:03;6.88;;;2.55;;
65182;SDS011;51771;51.068;-1.780;2023-04-24T13:33:28;7.05;;;2.20;;
65182;SDS011;51771;51.068;-1.780;2023-04-24T13:35:53;5.45;;;2.10;;
65182;SDS011;51771;51.068;-1.780;2023-04-24T13:38:19;7.00;;;2.40;;
65182;SDS011;51771;51.068;-1.780;2023-04-24T13:40:46;6.57;;;2.22;;
65182;SDS011;51771;51.068;-1.780;2023-04-24T13:43:11;5.00;;;2.17;;
65182;SDS011;51771;51.068;-1.780;2023-04-24T13:45:36;6.17;;;2.40;;
65182;SDS011;51771;51.068;-1.780;2023-04-24T13:48:02;6.60;;;2.00;;
65182;SDS011;51771;51.068;-1.780;2023-04-24T13:50:28;6.13;;;2.15;;
65182;SDS011;51771;51.068;-1.780;2023-04-24T13:52:53;7.15;;;2.30;;
65182;SDS011;51771;51.068;-1.780;2023-04-24T13:55:19;6.88;;;2.40;;
65182;SDS011;51771;51.068;-1.780;2023-04-24T13:57:44;6.57;;;2.77;;
65182;SDS011;51771;51.068;-1.780;2023-04-24T14:00:09;5.72;;;2.58;;
65182;SDS011;51771;51.068;-1.780;2023-04-24T14:02:35;6.32;;;2.70;;
65182;SDS011;51771;51.068;-1.780;2023-04-24T14:05:00;5.13;;;1.98;;
65182;SDS011;51771;51.068;-1.780;2023-04-24T14:07:26;5.97;;;2.20;;
65182;SDS011;51771;51.068;-1.780;2023-04-24T14:09:51;7.20;;;2.15;;
65182;SDS011;51771;51.068;-1.780;2023-04-24T14:12:16;4.03;;;1.80;;
65182;SDS011;51771;51.068;-1.780;2023-04-24T14:14:44;4.90;;;1.77;;
65182;SDS011;51771;51.068;-1.780;2023-04-24T14:17:09;4.32;;;2.08;;
65182;SDS011;51771;51.068;-1.780;2023-04-24T14:19:35;3.75;;;1.40;;
65182;SDS011;51771;51.068;-1.780;2023-04-24T14:22:00;4.87;;;2.00;;
65182;SDS011;51771;51.068;-1.780;2023-04-24T14:24:25;3.92;;;1.67;;
65182;SDS011;51771;51.068;-1.780;2023-04-24T14:26:51;5.40;;;2.00;;
65182;SDS011;51771;51.068;-1.780;2023-04-24T14:29:16;4.70;;;1.52;;
65182;SDS011;51771;51.068;-1.780;2023-04-24T14:31:42;4.47;;;1.80;;
65182;SDS011;51771;51.068;-1.780;2023-04-24T14:34:08;8.23;;;2.15;;
65182;SDS011;51771;51.068;-1.780;2023-04-24T14:36:33;5.22;;;1.92;;
65182;SDS011;51771;51.068;-1.780;2023-04-24T14:38:58;4.35;;;1.95;;
65182;SDS011;51771;51.068;-1.780;2023-04-24T14:41:24;4.65;;;1.50;;